Time;durP1;ratioP1;P1;durP2;ratioP2;P2;SDS_P1;SDS_P2;PMS_P1;PMS_P2;Temp;Humidity;BMP_temperature;BMP_pressure;BME280_temperature;BME280_humidity;BME280_pressure;Samples;Min_cycle;Max_cycle;Signal;HPM_P1;HPM_P2
2022/11/01 00:00:07;;;;;;;;;;;12.40;88.20;;;;;;5094447;28;19942;-88
2022/11/01 00:02:32;;;;;;;;;;;12.40;89.10;;;;;;5094635;28;19949;-89
2022/11/01 00:04:58;;;;;;;;;;;12.40;89.10;;;;;;5094616;28;20035;-88
2022/11/01 00:07:23;;;;;;;;;;;12.40;88.10;;;;;;5094551;28;20387;-89
2022/11/01 00:09:49;;;;;;;;;;;12.40;87.70;;;;;;5094251;28;19941;-89
2022/11/01 00:12:14;;;;;;;;;;;12.30;87.50;;;;;;5094253;28;20429;-89
2022/11/01 00:14:40;;;;;;;;;;;12.30;88.00;;;;;;5094319;28;19964;-89
2022/11/01 00:17:05;;;;;;;;;;;12.10;89.00;;;;;;5094339;28;19942;-89
2022/11/01 00:19:31;;;;;;;;;;;12.00;89.30;;;;;;5094021;28;19942;-88
2022/11/01 00:21:56;;;;;;;;;;;12.00;90.40;;;;;;5094237;28;20026;-88
2022/11/01 00:24:22;;;;;;;;;;;11.90;91.00;;;;;;5094115;28;19945;-89
2022/11/01 00:26:48;;;;;;;;;;;12.00;91.10;;;;;;5094178;28;19946;-89
2022/11/01 00:29:13;;;;;;;;;;;12.20;90.20;;;;;;5093699;28;19972;-89
2022/11/01 00:31:39;;;;;;;;;;;12.20;88.70;;;;;;5093864;28;19944;-88
2022/11/01 00:34:05;;;;;;;;;;;12.20;88.00;;;;;;5093614;28;20009;-89
2022/11/01 00:36:32;;;;;;;;;;;12.20;88.20;;;;;;5094307;28;19944;-88
2022/11/01 00:38:57;;;;;;;;;;;12.10;87.90;;;;;;5093802;28;19953;-89
2022/11/01 00:41:23;;;;;;;;;;;12.00;88.00;;;;;;5093879;28;19939;-89
2022/11/01 00:43:48;;;;;;;;;;;12.10;87.10;;;;;;5093904;28;20037;-88
2022/11/01 00:46:14;;;;;;;;;;;12.00;86.80;;;;;;5094137;28;20034;-88
2022/11/01 00:48:39;;;;;;;;;;;12.10;86.70;;;;;;5093557;28;20000;-88
2022/11/01 00:51:05;;;;;;;;;;;12.10;86.70;;;;;;5093307;28;19975;-89
2022/11/01 00:53:30;;;;;;;;;;;12.00;86.00;;;;;;5093663;28;19983;-89
2022/11/01 00:56:03;;;;;;;;;;;12.00;86.80;;;;;;5093604;28;19962;-89
2022/11/01 00:58:29;;;;;;;;;;;12.00;87.60;;;;;;5093334;28;20051;-89
2022/11/01 01:00:54;;;;;;;;;;;12.10;89.10;;;;;;5093602;28;20402;-89
2022/11/01 01:03:20;;;;;;;;;;;12.20;88.30;;;;;;5092571;28;20046;-89
2022/11/01 01:05:47;;;;;;;;;;;12.10;87.40;;;;;;5093790;28;19970;-89
2022/11/01 01:08:13;;;;;;;;;;;12.10;86.00;;;;;;5093287;28;20124;-89
2022/11/01 01:10:38;;;;;;;;;;;12.10;86.10;;;;;;5093518;28;20115;-88
2022/11/01 01:13:04;;;;;;;;;;;12.10;86.50;;;;;;5093714;28;19947;-88
2022/11/01 01:15:29;;;;;;;;;;;12.10;87.70;;;;;;5093340;28;19958;-88
2022/11/01 01:17:55;;;;;;;;;;;12.10;88.10;;;;;;5093013;28;19954;-89
2022/11/01 01:20:20;;;;;;;;;;;12.10;88.20;;;;;;5093354;28;20041;-89
2022/11/01 01:22:46;;;;;;;;;;;12.00;88.10;;;;;;5093297;28;19943;-89
2022/11/01 01:25:11;;;;;;;;;;;12.00;88.30;;;;;;5093297;28;19988;-89
2022/11/01 01:27:37;;;;;;;;;;;11.90;87.80;;;;;;5093016;28;19995;-89
2022/11/01 01:30:03;;;;;;;;;;;11.80;87.40;;;;;;5093072;28;19975;-89
2022/11/01 01:32:29;;;;;;;;;;;11.80;86.60;;;;;;5093249;28;19936;-89
2022/11/01 01:34:55;;;;;;;;;;;11.80;86.60;;;;;;5093124;28;19956;-88
2022/11/01 01:37:20;;;;;;;;;;;11.90;87.00;;;;;;5092884;28;19959;-88
2022/11/01 01:39:46;;;;;;;;;;;11.90;86.80;;;;;;5091898;28;19950;-89
2022/11/01 01:42:20;;;;;;;;;;;11.90;87.50;;;;;;5093208;28;19951;-89
2022/11/01 01:44:46;;;;;;;;;;;11.90;87.10;;;;;;5096130;28;19979;-89
2022/11/01 01:47:31;;;;;;;;;;;11.90;86.90;;;;;;5097012;28;20471;-88
2022/11/01 01:50:00;;;;;;;;;;;11.80;86.70;;;;;;5095952;28;19943;-89
2022/11/01 01:52:30;;;;;;;;;;;11.80;86.90;;;;;;5096975;28;19957;-88
2022/11/01 01:54:56;;;;;;;;;;;11.80;87.30;;;;;;5097004;28;19960;-89
2022/11/01 01:57:21;;;;;;;;;;;11.90;86.70;;;;;;5096809;28;19967;-89
2022/11/01 01:59:47;;;;;;;;;;;11.90;86.70;;;;;;5097064;28;20048;-88
2022/11/01 02:02:13;;;;;;;;;;;11.80;86.90;;;;;;5096997;28;19934;-89
2022/11/01 02:04:41;;;;;;;;;;;11.80;86.90;;;;;;5096911;28;20001;-89
2022/11/01 02:07:07;;;;;;;;;;;11.80;86.40;;;;;;5096664;28;19938;-88
2022/11/01 02:09:34;;;;;;;;;;;11.70;85.90;;;;;;5096832;28;19950;-89
2022/11/01 02:11:59;;;;;;;;;;;11.70;86.10;;;;;;5097041;28;19965;-89
2022/11/01 02:14:25;;;;;;;;;;;11.70;86.70;;;;;;5096667;28;20409;-89
2022/11/01 02:16:50;;;;;;;;;;;11.70;87.70;;;;;;5096740;28;19940;-88
2022/11/01 02:19:19;;;;;;;;;;;11.60;86.30;;;;;;5095827;28;19953;-89
2022/11/01 02:22:20;;;;;;;;;;;11.60;85.00;;;;;;5096553;28;20391;-89
2022/11/01 02:24:48;;;;;;;;;;;11.40;84.50;;;;;;5053919;28;19941;-89
2022/11/01 02:27:16;;;;;;;;;;;11.50;86.00;;;;;;5088348;28;19941;-89
2022/11/01 02:29:51;;;;;;;;;;;11.40;84.90;;;;;;5096269;28;19972;-89
2022/11/01 02:32:19;;;;;;;;;;;11.40;84.00;;;;;;5096345;28;20040;-89
2022/11/01 02:34:49;;;;;;;;;;;11.40;84.50;;;;;;5096261;28;20475;-88
2022/11/01 02:37:20;;;;;;;;;;;11.40;85.00;;;;;;5096054;28;19991;-89
2022/11/01 02:39:47;;;;;;;;;;;11.30;85.10;;;;;;5096200;28;19933;-89
2022/11/01 02:42:17;;;;;;;;;;;11.30;85.30;;;;;;5096201;28;20146;-88
2022/11/01 02:44:46;;;;;;;;;;;11.30;85.70;;;;;;5096164;28;20065;-88
2022/11/01 02:47:13;;;;;;;;;;;11.30;85.60;;;;;;5095894;28;19944;-89
2022/11/01 02:49:42;;;;;;;;;;;11.20;85.80;;;;;;5096139;28;20047;-88
2022/11/01 02:52:10;;;;;;;;;;;11.20;86.10;;;;;;5096084;28;19952;-89
2022/11/01 02:54:41;;;;;;;;;;;11.10;85.80;;;;;;5095807;28;19964;-89
2022/11/01 02:57:16;;;;;;;;;;;10.90;84.80;;;;;;5095251;28;19949;-88
2022/11/01 02:59:46;;;;;;;;;;;10.90;87.40;;;;;;5095810;28;20051;-88
2022/11/01 03:02:16;;;;;;;;;;;11.00;87.80;;;;;;5095796;28;19987;-89
2022/11/01 03:04:41;;;;;;;;;;;11.10;88.10;;;;;;5095737;28;19944;-88
2022/11/01 03:07:09;;;;;;;;;;;11.10;88.50;;;;;;5095409;28;20368;-88
2022/11/01 03:09:35;;;;;;;;;;;11.00;89.20;;;;;;5095656;28;19940;-88
2022/11/01 03:12:03;;;;;;;;;;;10.90;90.00;;;;;;5095617;28;19940;-88
2022/11/01 03:14:29;;;;;;;;;;;10.70;88.90;;;;;;5095535;28;20407;-88
2022/11/01 03:16:54;;;;;;;;;;;10.60;88.90;;;;;;5095555;28;19947;-88
2022/11/01 03:19:35;;;;;;;;;;;10.60;88.70;;;;;;5095492;28;19945;-88
2022/11/01 03:22:09;;;;;;;;;;;10.80;88.80;;;;;;5095779;28;19937;-88
2022/11/01 03:24:47;;;;;;;;;;;10.90;88.20;;;;;;5095323;28;19940;-89
2022/11/01 03:27:18;;;;;;;;;;;10.90;88.40;;;;;;5094985;28;20477;-88
2022/11/01 03:29:47;;;;;;;;;;;10.90;88.20;;;;;;5095102;28;19987;-88
2022/11/01 03:32:14;;;;;;;;;;;10.90;88.20;;;;;;5095507;28;19952;-89
2022/11/01 03:34:40;;;;;;;;;;;11.00;88.70;;;;;;5095090;28;19965;-89
2022/11/01 03:37:07;;;;;;;;;;;11.00;89.20;;;;;;5088613;28;19965;-89
2022/11/01 03:39:44;;;;;;;;;;;11.10;88.90;;;;;;5095090;28;19952;-88
2022/11/01 03:42:15;;;;;;;;;;;11.10;88.60;;;;;;5095015;28;19942;-88
2022/11/01 03:44:42;;;;;;;;;;;11.10;88.70;;;;;;5094968;28;19985;-88
2022/11/01 03:47:08;;;;;;;;;;;11.10;87.80;;;;;;5094936;28;20057;-89
2022/11/01 03:49:34;;;;;;;;;;;11.00;87.60;;;;;;5094751;28;19951;-88
2022/11/01 03:52:00;;;;;;;;;;;10.90;88.00;;;;;;5094653;28;19955;-89
2022/11/01 03:54:27;;;;;;;;;;;10.80;88.00;;;;;;5094705;28;20012;-88
2022/11/01 03:56:53;;;;;;;;;;;10.80;88.80;;;;;;5094488;28;19954;-88
2022/11/01 03:59:19;;;;;;;;;;;10.80;89.40;;;;;;5094734;28;19943;-88
2022/11/01 04:01:44;;;;;;;;;;;10.80;89.50;;;;;;5094658;28;19990;-88
2022/11/01 04:04:10;;;;;;;;;;;10.90;89.70;;;;;;5094622;28;20385;-89
2022/11/01 04:06:35;;;;;;;;;;;10.90;89.40;;;;;;5093859;28;19940;-88
2022/11/01 04:09:01;;;;;;;;;;;11.00;88.80;;;;;;5094127;28;20485;-88
2022/11/01 04:11:26;;;;;;;;;;;11.00;88.40;;;;;;5094485;28;19985;-88
2022/11/01 04:20:31;;;;;;;;;;;11.00;88.50;;;;;;5094407;28;19947;-89
2022/11/01 04:22:05;;;;;;;;;;;10.90;88.60;;;;;;5094275;28;19986;-87
2022/11/01 04:24:31;;;;;;;;;;;10.80;89.50;;;;;;5094210;28;19977;-88
2022/11/01 04:26:56;;;;;;;;;;;10.80;89.90;;;;;;5093971;28;19991;-88
2022/11/01 04:29:22;;;;;;;;;;;10.60;91.30;;;;;;5094018;28;20014;-88
2022/11/01 04:31:48;;;;;;;;;;;10.60;91.20;;;;;;5094066;28;19938;-88
2022/11/01 04:34:40;;;;;;;;;;;10.70;91.50;;;;;;5094012;28;19973;-88
2022/11/01 04:36:59;;;;;;;;;;;10.50;91.30;;;;;;5093614;28;20031;-88
2022/11/01 04:39:24;;;;;;;;;;;10.50;91.10;;;;;;5093948;28;20389;-88
2022/11/01 04:41:50;;;;;;;;;;;10.40;90.50;;;;;;5093921;28;19948;-88
2022/11/01 04:44:15;;;;;;;;;;;10.30;89.80;;;;;;5093902;28;19993;-88
2022/11/01 04:46:41;;;;;;;;;;;10.20;89.30;;;;;;5093439;28;19941;-88
2022/11/01 04:49:06;;;;;;;;;;;10.20;89.80;;;;;;5093552;28;19989;-88
2022/11/01 04:51:32;;;;;;;;;;;10.10;90.00;;;;;;5093423;28;19971;-88
2022/11/01 04:53:57;;;;;;;;;;;10.20;90.80;;;;;;5093629;28;19938;-87
2022/11/01 04:56:23;;;;;;;;;;;10.10;90.70;;;;;;5093528;28;20314;-87
2022/11/01 04:58:48;;;;;;;;;;;10.10;91.40;;;;;;5093804;28;19955;-87
2022/11/01 05:01:14;;;;;;;;;;;10.10;91.20;;;;;;5093643;28;20289;-88
2022/11/01 05:03:39;;;;;;;;;;;10.20;91.80;;;;;;5093683;28;20450;-88
2022/11/01 05:06:05;;;;;;;;;;;10.20;91.70;;;;;;5093338;28;19939;-88
2022/11/01 05:08:30;;;;;;;;;;;10.20;91.30;;;;;;5093576;28;19939;-88
2022/11/01 05:10:56;;;;;;;;;;;10.30;90.90;;;;;;5093494;28;19938;-88
2022/11/01 05:13:22;;;;;;;;;;;10.30;90.50;;;;;;5093527;28;19998;-88
2022/11/01 05:15:47;;;;;;;;;;;10.20;90.50;;;;;;5093100;28;19958;-87
2022/11/01 05:18:13;;;;;;;;;;;10.30;90.30;;;;;;5093005;28;19958;-88
2022/11/01 05:20:38;;;;;;;;;;;10.10;89.40;;;;;;5093414;28;19995;-87
2022/11/01 05:23:04;;;;;;;;;;;9.90;88.50;;;;;;5093646;28;19943;-88
2022/11/01 05:25:30;;;;;;;;;;;9.80;90.20;;;;;;5093012;28;20407;-88
2022/11/01 05:28:00;;;;;;;;;;;9.60;90.20;;;;;;5093230;28;20283;-88
2022/11/01 05:30:25;;;;;;;;;;;9.50;89.90;;;;;;5093081;28;19972;-87
2022/11/01 05:32:54;;;;;;;;;;;9.50;90.00;;;;;;5093461;28;19955;-88
2022/11/01 05:35:20;;;;;;;;;;;9.50;90.90;;;;;;5092831;28;19965;-87
2022/11/01 05:37:46;;;;;;;;;;;9.60;91.50;;;;;;5093042;28;19946;-87
2022/11/01 05:40:11;;;;;;;;;;;9.70;92.10;;;;;;5093126;28;20032;-87
2022/11/01 05:42:38;;;;;;;;;;;9.70;92.40;;;;;;5093117;28;19947;-87
2022/11/01 05:45:04;;;;;;;;;;;9.80;92.70;;;;;;5093177;28;19936;-88
2022/11/01 05:47:31;;;;;;;;;;;9.90;92.90;;;;;;5092734;28;19945;-88
2022/11/01 05:49:56;;;;;;;;;;;9.90;92.90;;;;;;5093075;28;20029;-87
2022/11/01 05:52:22;;;;;;;;;;;9.90;92.90;;;;;;5092835;28;19989;-88
2022/11/01 05:54:47;;;;;;;;;;;9.90;93.20;;;;;;5092934;28;19997;-87
2022/11/01 05:57:13;;;;;;;;;;;9.90;93.20;;;;;;5092550;28;19960;-88
2022/11/01 05:59:38;;;;;;;;;;;10.10;93.30;;;;;;5092558;28;19948;-88
2022/11/01 06:02:04;;;;;;;;;;;10.30;93.10;;;;;;5092053;28;19948;-88
2022/11/01 06:04:29;;;;;;;;;;;10.40;92.80;;;;;;5092877;28;19994;-88
2022/11/01 06:06:55;;;;;;;;;;;10.50;92.40;;;;;;5092857;28;20030;-88
2022/11/01 06:09:20;;;;;;;;;;;10.60;90.90;;;;;;5092858;28;19993;-87
2022/11/01 06:11:46;;;;;;;;;;;10.60;90.10;;;;;;5092642;28;19950;-88
2022/11/01 06:14:11;;;;;;;;;;;10.70;89.80;;;;;;5092733;28;20378;-88
2022/11/01 06:16:37;;;;;;;;;;;10.60;88.60;;;;;;5092827;28;20385;-87
2022/11/01 06:19:02;;;;;;;;;;;10.60;88.80;;;;;;5093086;28;20310;-88
2022/11/01 06:21:28;;;;;;;;;;;10.60;87.40;;;;;;5092474;28;20430;-88
2022/11/01 06:23:53;;;;;;;;;;;10.80;87.30;;;;;;5092729;28;20393;-88
2022/11/01 06:26:19;;;;;;;;;;;10.90;87.80;;;;;;5092767;28;20492;-88
2022/11/01 06:28:45;;;;;;;;;;;10.90;88.00;;;;;;5093990;22;20082;-87
2022/11/01 06:31:11;;;;;;;;;;;10.90;87.90;;;;;;5065870;28;19952;-88
2022/11/01 06:33:37;;;;;;;;;;;10.80;87.80;;;;;;5075963;28;19949;-87
2022/11/01 06:36:03;;;;;;;;;;;10.80;87.80;;;;;;5075907;28;19990;-87
2022/11/01 06:38:29;;;;;;;;;;;10.80;87.40;;;;;;5075998;28;19941;-88
2022/11/01 06:40:54;;;;;;;;;;;10.50;87.20;;;;;;5070527;28;20040;-88
2022/11/01 06:43:20;;;;;;;;;;;10.50;87.70;;;;;;5075952;28;20043;-88
2022/11/01 06:45:45;;;;;;;;;;;10.60;88.40;;;;;;5075823;28;19943;-87
2022/11/01 06:48:11;;;;;;;;;;;11.00;88.60;;;;;;5075896;28;19938;-87
2022/11/01 06:50:36;;;;;;;;;;;11.20;88.40;;;;;;5068907;28;19974;-87
2022/11/01 06:53:02;;;;;;;;;;;11.30;88.20;;;;;;5055424;28;19948;-87
2022/11/01 06:55:28;;;;;;;;;;;11.10;88.30;;;;;;5055628;28;20426;-87
2022/11/01 06:57:54;;;;;;;;;;;11.10;89.40;;;;;;5055702;28;20425;-87
2022/11/01 07:00:20;;;;;;;;;;;11.00;89.70;;;;;;5055320;28;19951;-88
2022/11/01 07:02:45;;;;;;;;;;;11.00;89.80;;;;;;5055547;28;19957;-88
2022/11/01 07:05:11;;;;;;;;;;;11.00;90.10;;;;;;5054222;28;20383;-88
2022/11/01 07:07:36;;;;;;;;;;;11.10;90.20;;;;;;5055468;28;19941;-88
2022/11/01 07:10:02;;;;;;;;;;;11.30;90.60;;;;;;5055226;28;19949;-88
2022/11/01 07:12:27;;;;;;;;;;;11.40;90.60;;;;;;5055169;28;19985;-87
2022/11/01 07:14:53;;;;;;;;;;;11.60;90.70;;;;;;5055277;28;19970;-88
2022/11/01 07:17:18;;;;;;;;;;;11.70;90.70;;;;;;5055284;28;19935;-88
2022/11/01 07:19:44;;;;;;;;;;;11.80;90.60;;;;;;5055220;28;19945;-88
2022/11/01 07:22:09;;;;;;;;;;;12.00;90.70;;;;;;5055188;28;19956;-87
2022/11/01 07:24:35;;;;;;;;;;;12.20;90.60;;;;;;5053878;28;19950;-87
2022/11/01 07:27:00;;;;;;;;;;;12.30;90.70;;;;;;5055395;28;19938;-88
2022/11/01 07:29:26;;;;;;;;;;;12.40;90.80;;;;;;5054898;28;19979;-87
2022/11/01 07:31:51;;;;;;;;;;;12.60;90.90;;;;;;5054753;28;19951;-88
2022/11/01 07:34:17;;;;;;;;;;;12.60;90.80;;;;;;5054965;28;19935;-87
2022/11/01 07:36:42;;;;;;;;;;;12.60;90.70;;;;;;5055235;28;19942;-87
2022/11/01 07:39:08;;;;;;;;;;;12.60;90.90;;;;;;5054919;28;19970;-88
2022/11/01 07:41:33;;;;;;;;;;;12.80;91.00;;;;;;5054274;28;20393;-87
2022/11/01 07:43:59;;;;;;;;;;;12.90;90.90;;;;;;5054636;28;20323;-88
2022/11/01 07:46:24;;;;;;;;;;;13.00;90.90;;;;;;5054756;28;19977;-88
2022/11/01 07:48:50;;;;;;;;;;;13.10;89.40;;;;;;5054711;28;19939;-88
2022/11/01 07:51:16;;;;;;;;;;;13.30;89.30;;;;;;5054218;28;20052;-88
2022/11/01 07:53:42;;;;;;;;;;;13.40;89.10;;;;;;5054598;28;19981;-88
2022/11/01 07:56:07;;;;;;;;;;;13.50;89.10;;;;;;5054491;28;19965;-88
2022/11/01 07:58:33;;;;;;;;;;;13.70;88.80;;;;;;5054508;28;19939;-88
2022/11/01 08:00:59;;;;;;;;;;;13.80;88.00;;;;;;5053861;28;19952;-87
2022/11/01 08:03:24;;;;;;;;;;;13.90;88.20;;;;;;5054773;28;19939;-88
2022/11/01 08:05:50;;;;;;;;;;;14.00;86.40;;;;;;5054656;28;20011;-87
2022/11/01 08:08:16;;;;;;;;;;;14.20;86.70;;;;;;5054285;28;20368;-88
2022/11/01 08:10:42;;;;;;;;;;;14.40;87.10;;;;;;5053903;28;20285;-87
2022/11/01 08:13:13;;;;;;;;;;;14.60;86.20;;;;;;5054266;28;19947;-88
2022/11/01 08:15:39;;;;;;;;;;;14.70;85.70;;;;;;5054137;28;19957;-88
2022/11/01 08:18:04;;;;;;;;;;;14.80;85.60;;;;;;5054122;28;20308;-88
2022/11/01 08:20:30;;;;;;;;;;;15.00;86.40;;;;;;5053826;28;19946;-88
2022/11/01 08:22:56;;;;;;;;;;;15.20;85.70;;;;;;5054070;28;19997;-88
2022/11/01 08:25:22;;;;;;;;;;;15.30;85.30;;;;;;5054000;28;19949;-88
2022/11/01 08:27:48;;;;;;;;;;;15.50;84.40;;;;;;5053975;28;19946;-88
2022/11/01 08:30:14;;;;;;;;;;;15.70;84.10;;;;;;5053568;28;20356;-88
2022/11/01 08:32:40;;;;;;;;;;;15.80;83.80;;;;;;5053917;28;20074;-88
2022/11/01 08:35:06;;;;;;;;;;;16.00;82.50;;;;;;5053800;28;20051;-88
2022/11/01 08:37:31;;;;;;;;;;;16.00;81.50;;;;;;5053810;28;19994;-88
2022/11/01 08:39:57;;;;;;;;;;;16.10;80.00;;;;;;5053749;28;19935;-88
2022/11/01 08:42:22;;;;;;;;;;;16.20;79.40;;;;;;5053476;28;19950;-89
2022/11/01 08:44:48;;;;;;;;;;;16.20;80.40;;;;;;5053639;28;20401;-88
2022/11/01 08:47:13;;;;;;;;;;;16.40;80.10;;;;;;5053602;28;19939;-88
2022/11/01 08:49:39;;;;;;;;;;;16.40;78.00;;;;;;5053588;28;19940;-89
2022/11/01 08:52:04;;;;;;;;;;;16.60;78.50;;;;;;5052613;28;20418;-89
2022/11/01 08:54:31;;;;;;;;;;;16.70;78.50;;;;;;5052772;28;20431;-89
2022/11/01 08:56:56;;;;;;;;;;;16.80;77.50;;;;;;5053469;28;19940;-89
2022/11/01 08:59:22;;;;;;;;;;;16.80;76.90;;;;;;5053445;28;19942;-89
2022/11/01 09:01:49;;;;;;;;;;;16.80;75.00;;;;;;5053082;28;20396;-88
2022/11/01 09:04:15;;;;;;;;;;;16.90;75.20;;;;;;5053232;28;19946;-88
2022/11/01 09:06:41;;;;;;;;;;;16.80;75.60;;;;;;5053353;28;19946;-89
2022/11/01 09:09:08;;;;;;;;;;;16.90;75.20;;;;;;5053219;28;20417;-89
2022/11/01 09:11:33;;;;;;;;;;;17.10;74.50;;;;;;5052366;28;19945;-89
2022/11/01 09:14:00;;;;;;;;;;;17.20;74.30;;;;;;5053170;28;19951;-89
2022/11/01 09:16:25;;;;;;;;;;;17.30;74.00;;;;;;5053332;28;19976;-89
2022/11/01 09:18:51;;;;;;;;;;;17.40;73.40;;;;;;5053149;28;19940;-89
2022/11/01 09:21:17;;;;;;;;;;;17.60;72.80;;;;;;5052864;28;19941;-89
2022/11/01 09:23:42;;;;;;;;;;;17.80;72.10;;;;;;5053111;28;19958;-89
2022/11/01 09:26:09;;;;;;;;;;;17.80;71.00;;;;;;5053085;28;19942;-88
2022/11/01 09:28:35;;;;;;;;;;;17.90;70.40;;;;;;5052970;28;20029;-88
2022/11/01 09:31:04;;;;;;;;;;;18.10;70.10;;;;;;5052608;28;20027;-89
2022/11/01 09:33:31;;;;;;;;;;;18.10;69.80;;;;;;5053241;28;20025;-89
2022/11/01 09:35:57;;;;;;;;;;;18.20;69.60;;;;;;5052922;28;19967;-89
2022/11/01 09:38:22;;;;;;;;;;;18.30;69.00;;;;;;5052965;28;19941;-88
2022/11/01 09:40:52;;;;;;;;;;;18.30;69.40;;;;;;5052734;28;19942;-89
2022/11/01 09:43:21;;;;;;;;;;;18.40;68.30;;;;;;5053113;28;19943;-89
2022/11/01 09:45:49;;;;;;;;;;;18.40;68.00;;;;;;5052881;28;19941;-89
2022/11/01 09:48:14;;;;;;;;;;;18.50;67.90;;;;;;5053099;28;20016;-88
2022/11/01 09:50:42;;;;;;;;;;;18.70;67.10;;;;;;5052409;28;20452;-89
2022/11/01 09:53:22;;;;;;;;;;;18.80;67.00;;;;;;5052602;28;20297;-89
2022/11/01 09:55:50;;;;;;;;;;;19.10;67.30;;;;;;5046995;28;20062;-89
2022/11/01 09:58:19;;;;;;;;;;;19.30;67.10;;;;;;5052626;28;20333;-89
2022/11/01 10:00:50;;;;;;;;;;;19.30;66.40;;;;;;5051984;28;20295;-89
2022/11/01 10:03:33;;;;;;;;;;;19.30;66.60;;;;;;5033540;28;20407;-89
2022/11/01 10:06:01;;;;;;;;;;;19.30;67.10;;;;;;5034356;28;19969;-89
2022/11/01 10:08:57;;;;;;;;;;;19.30;68.70;;;;;;5036684;28;20317;-89
2022/11/01 10:11:25;;;;;;;;;;;19.40;67.20;;;;;;5040647;28;19948;-89
2022/11/01 10:13:57;;;;;;;;;;;19.40;67.10;;;;;;5056516;28;20416;-89
2022/11/01 10:16:36;;;;;;;;;;;19.50;67.30;;;;;;5056428;28;20009;-89
2022/11/01 10:19:01;;;;;;;;;;;19.60;68.50;;;;;;5056414;28;19996;-89
2022/11/01 10:21:31;;;;;;;;;;;19.70;68.50;;;;;;5056084;28;19995;-89
2022/11/01 10:23:58;;;;;;;;;;;19.80;68.60;;;;;;5056361;28;19942;-89
2022/11/01 10:26:28;;;;;;;;;;;19.90;67.20;;;;;;5056301;28;20056;-88
2022/11/01 10:28:54;;;;;;;;;;;20.00;66.70;;;;;;5056042;28;19976;-88
2022/11/01 10:31:21;;;;;;;;;;;20.10;66.70;;;;;;5055598;28;19952;-88
2022/11/01 10:33:47;;;;;;;;;;;20.10;66.40;;;;;;5048152;28;19947;-89
2022/11/01 10:36:14;;;;;;;;;;;20.10;65.30;;;;;;5055980;28;19966;-89
2022/11/01 10:38:42;;;;;;;;;;;20.00;66.10;;;;;;5056320;28;19944;-89
2022/11/01 10:41:18;;;;;;;;;;;20.10;66.00;;;;;;5055740;28;19943;-89
2022/11/01 10:43:46;;;;;;;;;;;20.10;65.90;;;;;;5055974;28;19949;-89
2022/11/01 10:46:20;;;;;;;;;;;20.00;65.60;;;;;;5056175;28;20085;-89
2022/11/01 10:48:48;;;;;;;;;;;19.90;67.10;;;;;;5055853;28;19947;-89
2022/11/01 10:51:15;;;;;;;;;;;20.00;67.80;;;;;;5055499;28;19961;-89
2022/11/01 10:53:49;;;;;;;;;;;19.90;67.60;;;;;;5055714;28;20357;-89
2022/11/01 10:56:27;;;;;;;;;;;19.80;67.80;;;;;;5054372;28;19972;-89
2022/11/01 10:58:57;;;;;;;;;;;19.80;68.60;;;;;;5055684;28;19946;-89
2022/11/01 11:01:28;;;;;;;;;;;19.80;69.00;;;;;;5055380;28;20318;-89
2022/11/01 11:03:55;;;;;;;;;;;19.70;69.50;;;;;;5055633;28;20433;-89
2022/11/01 11:06:21;;;;;;;;;;;19.80;69.70;;;;;;5055551;28;20388;-89
2022/11/01 11:08:51;;;;;;;;;;;19.80;68.40;;;;;;5055469;28;19959;-90
2022/11/01 11:11:20;;;;;;;;;;;19.60;68.70;;;;;;5054974;28;19942;-89
2022/11/01 11:13:47;;;;;;;;;;;19.50;68.80;;;;;;5055448;28;20029;-88
2022/11/01 11:16:18;;;;;;;;;;;19.30;68.90;;;;;;5054801;28;20015;-89
2022/11/01 11:18:58;;;;;;;;;;;19.30;68.90;;;;;;5055341;28;19936;-88
2022/11/01 11:21:24;;;;;;;;;;;19.20;69.90;;;;;;5055065;28;20471;-89
2022/11/01 11:23:50;;;;;;;;;;;19.10;72.10;;;;;;5055273;28;19938;-89
2022/11/01 11:26:19;;;;;;;;;;;19.10;71.80;;;;;;5055152;28;20196;-89
2022/11/01 11:28:46;;;;;;;;;;;19.00;71.70;;;;;;5055187;28;19943;-88
2022/11/01 11:31:15;;;;;;;;;;;19.00;71.70;;;;;;5054981;28;19952;-89
2022/11/01 11:34:07;;;;;;;;;;;18.90;71.80;;;;;;5055297;28;19946;-89
2022/11/01 11:36:37;;;;;;;;;;;19.00;73.10;;;;;;5023935;28;19974;-89
2022/11/01 11:39:03;;;;;;;;;;;19.10;73.30;;;;;;5054678;28;20401;-89
2022/11/01 11:41:32;;;;;;;;;;;19.10;72.80;;;;;;5054893;28;19940;-89
2022/11/01 11:43:58;;;;;;;;;;;19.10;72.80;;;;;;5054821;28;19948;-88
2022/11/01 11:46:24;;;;;;;;;;;19.10;72.20;;;;;;5054811;28;19946;-88
2022/11/01 11:48:55;;;;;;;;;;;19.20;72.00;;;;;;5055040;28;19942;-88
2022/11/01 11:51:21;;;;;;;;;;;19.30;72.20;;;;;;5054295;28;19973;-88
2022/11/01 11:54:06;;;;;;;;;;;19.20;72.40;;;;;;5054585;28;20435;-88
2022/11/01 11:56:31;;;;;;;;;;;19.10;72.40;;;;;;5054768;28;19962;-88
2022/11/01 11:59:01;;;;;;;;;;;19.20;72.40;;;;;;5054420;28;19938;-88
2022/11/01 12:01:27;;;;;;;;;;;19.20;72.10;;;;;;5050468;28;20043;-89
2022/11/01 12:03:53;;;;;;;;;;;19.30;71.90;;;;;;5054460;28;19947;-89
2022/11/01 12:06:20;;;;;;;;;;;19.30;71.50;;;;;;5054386;28;19940;-88
2022/11/01 12:08:47;;;;;;;;;;;19.30;70.70;;;;;;5054396;28;19988;-89
2022/11/01 12:11:13;;;;;;;;;;;19.30;70.40;;;;;;5054136;28;19956;-88
2022/11/01 12:13:43;;;;;;;;;;;19.40;70.70;;;;;;5054228;28;19940;-89
2022/11/01 12:16:08;;;;;;;;;;;19.50;71.80;;;;;;5054164;28;20060;-89
2022/11/01 12:18:43;;;;;;;;;;;19.50;71.00;;;;;;5054205;28;20037;-89
2022/11/01 12:21:14;;;;;;;;;;;19.60;70.90;;;;;;5053874;28;20039;-89
2022/11/01 12:23:40;;;;;;;;;;;19.60;70.60;;;;;;5054092;28;20023;-88
2022/11/01 12:26:07;;;;;;;;;;;19.70;71.10;;;;;;5054610;28;20034;-89
2022/11/01 12:28:38;;;;;;;;;;;19.80;71.70;;;;;;5053057;28;20038;-89
2022/11/01 12:31:20;;;;;;;;;;;20.00;71.10;;;;;;5053112;28;19963;-89
2022/11/01 12:34:02;;;;;;;;;;;20.00;70.40;;;;;;5053885;28;20017;-89
2022/11/01 12:36:42;;;;;;;;;;;20.20;69.60;;;;;;5040084;28;19951;-89
2022/11/01 12:39:12;;;;;;;;;;;20.20;69.80;;;;;;5034326;28;20457;-89
2022/11/01 12:41:38;;;;;;;;;;;20.20;68.70;;;;;;5053678;28;19939;-88
2022/11/01 12:44:03;;;;;;;;;;;20.10;68.50;;;;;;5053666;28;20003;-89
2022/11/01 12:46:43;;;;;;;;;;;20.00;67.80;;;;;;5053616;28;20389;-89
2022/11/01 12:49:21;;;;;;;;;;;19.90;68.30;;;;;;5053578;28;20037;-89
2022/11/01 12:51:51;;;;;;;;;;;19.90;70.00;;;;;;5053290;28;19956;-90
2022/11/01 12:54:20;;;;;;;;;;;19.80;71.60;;;;;;5053406;28;20348;-88
2022/11/01 12:56:46;;;;;;;;;;;19.70;71.30;;;;;;5053263;28;19951;-89
2022/11/01 12:59:14;;;;;;;;;;;19.40;70.90;;;;;;5053428;28;19943;-89
2022/11/01 13:01:51;;;;;;;;;;;19.40;71.50;;;;;;5053355;28;19946;-89
2022/11/01 13:04:26;;;;;;;;;;;19.30;71.80;;;;;;5053338;28;19945;-88
2022/11/01 13:06:57;;;;;;;;;;;19.20;71.90;;;;;;5053193;28;19937;-89
2022/11/01 13:09:26;;;;;;;;;;;19.20;72.90;;;;;;5053031;28;19956;-88
2022/11/01 13:11:59;;;;;;;;;;;19.20;73.20;;;;;;5053265;28;19940;-88
2022/11/01 13:14:25;;;;;;;;;;;19.10;73.40;;;;;;5053190;28;19941;-89
2022/11/01 13:16:54;;;;;;;;;;;19.10;74.60;;;;;;5052897;28;19945;-88
2022/11/01 13:19:26;;;;;;;;;;;19.00;73.40;;;;;;5053458;28;19937;-88
2022/11/01 13:21:55;;;;;;;;;;;19.00;74.20;;;;;;5051805;28;20300;-88
2022/11/01 13:24:37;;;;;;;;;;;19.00;74.90;;;;;;5053098;28;19937;-88
2022/11/01 13:27:02;;;;;;;;;;;19.00;73.90;;;;;;5053039;28;20042;-88
2022/11/01 13:29:49;;;;;;;;;;;19.10;74.00;;;;;;5052871;28;20396;-88
2022/11/01 13:32:27;;;;;;;;;;;19.10;74.80;;;;;;5053041;28;19946;-88
2022/11/01 13:34:59;;;;;;;;;;;19.10;74.20;;;;;;5052934;28;20499;-88
2022/11/01 13:37:38;;;;;;;;;;;19.10;74.60;;;;;;5052654;28;19945;-88
2022/11/01 13:40:12;;;;;;;;;;;19.20;74.60;;;;;;5054781;28;19939;-88
2022/11/01 13:42:45;;;;;;;;;;;19.20;74.00;;;;;;5057094;28;19941;-88
2022/11/01 13:45:17;;;;;;;;;;;19.10;73.90;;;;;;5056619;28;20418;-88
2022/11/01 13:47:55;;;;;;;;;;;19.20;74.40;;;;;;5057010;28;20034;-88
2022/11/01 13:50:32;;;;;;;;;;;19.30;74.40;;;;;;5056978;28;19947;-89
2022/11/01 13:53:03;;;;;;;;;;;19.50;74.50;;;;;;5056758;28;20038;-89
2022/11/01 13:55:35;;;;;;;;;;;19.60;74.60;;;;;;5056469;28;20507;-89
2022/11/01 13:58:03;;;;;;;;;;;19.60;74.50;;;;;;5056877;28;19948;-89
2022/11/01 14:00:34;;;;;;;;;;;19.60;74.20;;;;;;5056035;28;19948;-89
2022/11/01 14:03:14;;;;;;;;;;;19.60;74.50;;;;;;5056498;28;19971;-89
2022/11/01 14:05:40;;;;;;;;;;;19.60;74.70;;;;;;5056702;28;19941;-89
2022/11/01 14:08:10;;;;;;;;;;;19.60;73.80;;;;;;5056911;28;20293;-88
2022/11/01 14:10:36;;;;;;;;;;;19.60;75.10;;;;;;5056711;28;19951;-89
2022/11/01 14:13:13;;;;;;;;;;;19.60;75.30;;;;;;5056584;28;20009;-89
2022/11/01 14:15:53;;;;;;;;;;;19.40;74.40;;;;;;5056458;28;20006;-89
2022/11/01 14:18:19;;;;;;;;;;;19.30;75.00;;;;;;5056508;28;19943;-89
2022/11/01 14:20:45;;;;;;;;;;;19.20;75.00;;;;;;5056151;28;19945;-89
2022/11/01 14:23:28;;;;;;;;;;;19.10;75.50;;;;;;5056400;28;19940;-89
2022/11/01 14:26:12;;;;;;;;;;;19.20;76.30;;;;;;5056296;28;19946;-88
2022/11/01 14:28:41;;;;;;;;;;;19.10;76.10;;;;;;5063816;22;19940;-89